Flight Track Log - Related Links

Times and Time Zones

All times are in EDT time to prevent confusion due to time zone crossing. See the AMX682 flight status page for this flight to view local times or setup timezone preferences in your user account.

Time Position Orientation Groundspeed Altitude Reporting Facility
EDT Latitude Longitude Course Direction KTS MPH feet Rate Location/Type
Fri 09:13:49 PM 24.9683 -97.2389 13° North 446 513 39,000  Level Houston Center
Fri 09:14:50 PM 25.0897 -97.2081 13° North 446 513 39,000 -49 Level Houston Center
Fri 09:15:52 PM 25.2092 -97.1811 12° North 444 511 38,900  Descending Houston Center
Fri 09:16:53 PM 25.3300 -97.1525 12° North 443 510 39,000  Climbing Houston Center
Fri 09:17:54 PM 25.4494 -97.1256 12° North 439 505 38,900  Descending Houston Center
Fri 09:18:56 PM 25.5900 -97.0925 12° North 439 505 39,000 49 Climbing Houston Center
Fri 09:19:57 PM 25.7111 -97.0647 12° North 444 511 39,000  Level Houston Center
Fri 09:20:59 PM 25.8411 -97.0361 11° North 442 509 39,000  Level Houston Center
Fri 09:22:00 PM 25.9628 -97.0086 11° North 446 513 39,000  Level Houston Center
Fri 09:23:02 PM 26.0839 -96.9706 16° North 451 519 39,000  Level Houston Center
Fri 09:24:03 PM 26.2150 -96.9150 21° North 465 535 39,000  Level Houston Center
Fri 09:25:05 PM 26.3356 -96.8647 20° North 463 533 39,000  Level Houston Center
Fri 09:26:06 PM 26.4569 -96.8156 20° North 463 533 39,000  Level Houston Center
Fri 09:27:07 PM 26.5603 -96.7711 21° North 461 531 39,000 -49 Level Houston Center
Fri 09:28:08 PM 26.7017 -96.7139 20° North 452 520 38,900 -49 Descending Houston Center
Fri 09:29:10 PM 26.8206 -96.6667 20° North 453 521 38,900 49 Level Houston Center
Fri 09:30:11 PM 26.9392 -96.6214 19° North 451 519 39,000 49 Climbing Houston Center
Fri 09:31:12 PM 27.0564 -96.5778 18° North 447 514 39,000  Level Houston Center
Fri 09:32:14 PM 27.1875 -96.5289 18° North 447 514 39,000  Level Houston Center
Fri 09:33:15 PM 27.3069 -96.4856 18° North 450 518 39,000  Level Houston Center
Fri 09:34:16 PM 27.4247 -96.4422 18° North 448 516 39,000  Level Houston Center
Fri 09:35:17 PM 27.5428 -96.4000 18° North 445 512 39,000  Level Houston Center
Fri 09:36:18 PM 27.6600 -96.3586 17° North 443 510 39,000  Level Houston Center
Fri 09:37:20 PM 27.7761 -96.3219 16° North 438 504 39,000  Level Houston Center
Fri 09:38:21 PM 27.8931 -96.2844 16° North 436 502 39,000  Level Houston Center
Fri 09:39:22 PM 28.0092 -96.2475 16° North 434 499 39,000 -49 Level Houston Center
Fri 09:40:23 PM 28.1269 -96.2128 15° North 436 502 38,900  Descending Houston Center
Fri 09:41:24 PM 28.2453 -96.1767 15° North 440 506 39,000 49 Climbing Houston Center
Fri 09:42:25 PM 28.3881 -96.1336 15° North 443 510 39,000 -49 Level Houston Center
Fri 09:43:27 PM 28.5064 -96.0900 18° North 453 521 38,900 -49 Descending Houston Center
Fri 09:44:28 PM 28.6228 -96.0347 23° Northeast 455 524 38,900  Level Houston Center
Fri 09:45:29 PM 28.7383 -95.9761 24° Northeast 454 522 38,900 49 Level Houston Center
Fri 09:46:30 PM 28.8478 -95.9172 25° Northeast 455 524 39,000 49 Climbing Houston Center
Fri 09:47:31 PM 28.9636 -95.8589 24° Northeast 453 521 39,000  Level Houston Center
Fri 09:48:32 PM 29.0786 -95.8011 24° Northeast 451 519 39,000  Level Houston Center
Fri 09:49:33 PM 29.1936 -95.7428 24° Northeast 452 520 39,000  Level Houston Center
Fri 09:50:35 PM 29.3328 -95.6725 24° Northeast 454 522 39,000  Level Houston Center
Fri 09:51:36 PM 29.4497 -95.6128 24° Northeast 455 524 39,000  Level Houston Center
Fri 09:52:37 PM 29.5686 -95.5536 23° Northeast 459 528 39,000  Level Houston Center
Fri 09:53:38 PM 29.6881 -95.4914 24° Northeast 465 535 39,000  Level Houston Center
Fri 09:54:39 PM 29.8078 -95.4303 24° Northeast 465 535 39,000  Level Houston Center
Fri 09:55:41 PM 29.9283 -95.3686 24° Northeast 468 539 39,000  Level Houston Center
Fri 09:56:42 PM 30.0450 -95.3064 25° Northeast 464 534 39,000  Level Houston Center
Fri 09:57:43 PM 30.1625 -95.2456 24° Northeast 460 529 39,000  Level Houston Center
Fri 09:58:44 PM 30.2792 -95.1844 24° Northeast 459 528 39,000  Level Houston Center
Fri 09:59:45 PM 30.3961 -95.1239 24° Northeast 460 529 39,000  Level Houston Center
Fri 10:00:46 PM 30.5083 -95.0619 25° Northeast 448 516 39,000  Level Houston Center
Fri 10:01:47 PM 30.6253 -95.0014 24° Northeast 453 521 39,000  Level Houston Center
Fri 10:02:48 PM 30.7433 -94.9386 25° Northeast 459 528 39,000  Level Houston Center
Fri 10:03:49 PM 30.8611 -94.8764 24° Northeast 463 533 39,000  Level Houston Center
Fri 10:04:18 PM 30.9367 -94.8392 23° Northeast 455 524 39,000  Level Fort Worth Center
Fri 10:05:18 PM 31.0481 -94.7753 26° Northeast 455 524 39,000  Level Fort Worth Center
Fri 10:06:18 PM 31.1556 -94.7214 23° Northeast 464 534 39,000  Level Fort Worth Center
Fri 10:07:18 PM 31.2875 -94.6447 26° Northeast 464 534 39,000  Level Fort Worth Center
Fri 10:08:18 PM 31.3839 -94.5689 34° Northeast 463 533 39,000  Level Fort Worth Center
Fri 10:09:18 PM 31.5008 -94.4847 32° Northeast 470 541 39,000  Level Fort Worth Center
Fri 10:10:18 PM 31.6117 -94.4056 31° Northeast 475 547 39,000  Level Fort Worth Center
Fri 10:11:18 PM 31.7247 -94.3286 30° Northeast 475 547 39,000  Level Fort Worth Center
Fri 10:12:18 PM 31.8333 -94.2492 32° Northeast 470 541 39,000  Level Fort Worth Center
Fri 10:13:18 PM 31.9461 -94.1719 30° Northeast 464 534 39,000  Level Fort Worth Center
Fri 10:14:18 PM 32.0589 -94.0919 31° Northeast 464 534 39,000  Level Fort Worth Center
Fri 10:15:18 PM 32.1694 -94.0119 31° Northeast 464 534 39,000  Level Fort Worth Center
Fri 10:16:18 PM 32.2822 -93.9292 32° Northeast 464 534 39,000  Level Fort Worth Center
Fri 10:17:18 PM 32.3947 -93.8508 30° Northeast 464 534 39,000  Level Fort Worth Center
Fri 10:18:18 PM 32.5050 -93.7703 32° Northeast 464 534 39,000  Level Fort Worth Center
Fri 10:19:18 PM 32.6178 -93.6942 30° Northeast 464 534 39,000  Level Fort Worth Center
Fri 10:20:18 PM 32.7258 -93.6131 32° Northeast 464 534 39,000  Level Fort Worth Center
Fri 10:21:18 PM 32.8342 -93.5344 31° Northeast 464 534 39,000  Level Fort Worth Center
Fri 10:22:18 PM 32.9444 -93.4578 30° Northeast 459 528 39,000  Level Fort Worth Center
Fri 10:23:18 PM 33.0547 -93.3786 31° Northeast 459 528 39,000  Level Fort Worth Center
Fri 10:24:18 PM 33.1628 -93.2992 32° Northeast 454 522 39,000  Level Fort Worth Center
Fri 10:25:57 PM 33.3567 -93.1625 30° Northeast 451 519 39,000  Level Memphis Center
Fri 10:26:57 PM 33.4628 -93.0839 32° Northeast 451 519 39,000  Level Memphis Center
Fri 10:27:57 PM 33.5750 -93.0050 30° Northeast 456 525 39,000  Level Memphis Center
Fri 10:28:57 PM 33.6853 -92.9236 32° Northeast 456 525 39,000  Level Memphis Center
Fri 10:29:57 PM 33.7933 -92.8417 32° Northeast 456 525 39,000  Level Memphis Center
Fri 10:30:57 PM 33.9033 -92.7647 30° Northeast 461 531 39,000  Level Memphis Center
Fri 10:31:57 PM 34.0156 -92.6803 32° Northeast 461 531 39,000  Level Memphis Center
Fri 10:32:57 PM 34.1192 -92.6003 33° Northeast 461 531 39,000  Level Memphis Center
Fri 10:33:57 PM 34.2314 -92.5128 33° Northeast 461 531 39,000  Level Memphis Center
Fri 10:34:57 PM 34.3414 -92.4325 31° Northeast 461 531 39,000  Level Memphis Center
Fri 10:35:57 PM 34.4533 -92.3494 31° Northeast 461 531 39,000  Level Memphis Center
Fri 10:36:57 PM 34.5653 -92.2639 32° Northeast 461 531 39,000  Level Memphis Center
Fri 10:37:57 PM 34.6789 -92.1831 30° Northeast 461 531 39,000  Level Memphis Center
Fri 10:38:57 PM 34.7964 -92.1475 14° North 447 514 39,000  Level Memphis Center
Fri 10:39:57 PM 34.9181 -92.1097 14° North 442 509 39,000  Level Memphis Center
Fri 10:40:57 PM 35.0372 -92.0767 13° North 442 509 39,000  Level Memphis Center
Fri 10:41:57 PM 35.1631 -92.0436 12° North 437 503 39,000  Level Memphis Center
Fri 10:42:57 PM 35.2844 -92.0078 14° North 443 510 39,000  Level Memphis Center
Fri 10:43:57 PM 35.4081 -91.9697 14° North 443 510 39,000  Level Memphis Center
Fri 10:44:57 PM 35.5314 -91.9336 13° North 448 516 39,000  Level Memphis Center
Fri 10:45:57 PM 35.6569 -91.9003 12° North 453 521 39,000  Level Memphis Center
Fri 10:46:57 PM 35.7806 -91.8642 13° North 453 521 39,000  Level Memphis Center
Fri 10:47:57 PM 35.8978 -91.8278 14° North 448 516 39,000  Level Memphis Center
Fri 10:48:57 PM 36.0150 -91.7914 14° North 434 499 39,000  Level Memphis Center
Fri 10:49:57 PM 36.1342 -91.7575 13° North 434 499 39,000  Level Memphis Center
Fri 10:50:57 PM 36.2575 -91.7211 13° North 439 505 39,000  Level Memphis Center
Fri 10:52:28 PM 36.4178 -91.6708 14° North 447 514 39,000  Level Kansas City Center
Fri 10:53:28 PM 36.5392 -91.6353 13° North 449 517 39,000  Level Kansas City Center
Fri 10:54:28 PM 36.6703 -91.5944 14° North 448 516 39,000  Level Kansas City Center
Fri 10:55:31 PM 36.7944 -91.5578 13° North 453 521 39,000  Level Kansas City Center
Fri 10:56:29 PM 36.9164 -91.5233 13° North 452 520 39,000  Level Kansas City Center
Fri 10:57:33 PM 37.0375 -91.4869 13° North 449 517 39,000  Level Kansas City Center
Fri 10:58:33 PM 37.1617 -91.4500 13° North 452 520 39,000  Level Kansas City Center
Fri 10:59:34 PM 37.3119 -91.4022 14° North 458 527 39,000  Level Kansas City Center
Fri 11:00:35 PM 37.4367 -91.3625 14° North 459 528 39,000  Level Kansas City Center
Fri 11:01:36 PM 37.5633 -91.3236 14° North 463 533 39,000  Level Kansas City Center
Fri 11:02:37 PM 37.6869 -91.2858 14° North 463 533 39,000  Level Kansas City Center
Fri 11:03:36 PM 37.8131 -91.2475 14° North 463 533 39,000  Level Kansas City Center
Fri 11:04:36 PM 37.9381 -91.2081 14° North 464 534 39,000  Level Kansas City Center
Fri 11:05:40 PM 38.0633 -91.1681 14° North 464 534 39,000  Level Kansas City Center
Fri 11:06:41 PM 38.1908 -91.1283 14° North 466 536 39,000  Level Kansas City Center
Fri 11:07:41 PM 38.3181 -91.0906 13° North 468 539 39,000  Level Kansas City Center
Fri 11:08:43 PM 38.4442 -91.0508 14° North 466 536 39,000  Level Kansas City Center
Fri 11:09:43 PM 38.5697 -91.0117 14° North 464 534 39,000  Level Kansas City Center
Fri 11:10:42 PM 38.6956 -90.9714 14° North 463 533 39,000  Level Kansas City Center
Fri 11:11:45 PM 38.8186 -90.9067 22° Northeast 472 543 39,000  Level Kansas City Center
Fri 11:12:44 PM 38.9408 -90.8389 23° Northeast 473 544 39,000  Level Kansas City Center
Fri 11:13:44 PM 39.0633 -90.7733 23° Northeast 474 545 39,000  Level Kansas City Center
Fri 11:14:47 PM 39.1853 -90.7075 23° Northeast 472 543 39,000 -341 Level Kansas City Center
Fri 11:15:47 PM 39.3056 -90.6403 23° Northeast 469 540 38,300 -787 Descending Kansas City Center
Fri 11:16:49 PM 39.4275 -90.5731 23° Northeast 473 544 37,400 -927 Descending Kansas City Center
Fri 11:17:50 PM 39.5506 -90.5053 23° Northeast 478 550 36,400 -934 Descending Kansas City Center
Fri 11:18:51 PM 39.6744 -90.4361 23° Northeast 482 555 35,500 -1,041 Descending Kansas City Center
Fri 11:19:51 PM 39.8194 -90.3564 23° Northeast 487 560 34,300 -1,143 Descending Kansas City Center
Fri 11:20:36 PM 39.9192 -90.2986 24° Northeast 494 568 33,500 -736 Descending Chicago Center
Fri 11:21:37 PM 40.0406 -90.2303 23° Northeast 480 552 33,000 -246 Descending Chicago Center
Fri 11:22:38 PM 40.1614 -90.1614 24° Northeast 474 545 33,000  Level Chicago Center
Fri 11:23:39 PM 40.2803 -90.0944 23° Northeast 468 539 33,000  Level Chicago Center
Fri 11:24:40 PM 40.3942 -90.0122 29° Northeast 471 542 33,000  Level Chicago Center
Fri 11:25:41 PM 40.4956 -89.8964 41° Northeast 474 545 33,000  Level Chicago Center
Fri 11:26:41 PM 40.5925 -89.7828 42° Northeast 469 540 33,000 -843 Level Chicago Center
Fri 11:27:42 PM 40.6922 -89.6719 40° Northeast 469 540 31,300 -2,066 Descending Chicago Center
Fri 11:28:43 PM 40.7894 -89.5592 41° Northeast 467 537 28,800 -2,508 Descending Chicago Center
Fri 11:29:44 PM 40.8953 -89.4364 41° Northeast 455 524 26,200 -2,311 Descending Chicago Center
Fri 11:30:45 PM 40.9861 -89.3311 41° Northeast 439 505 24,100 -2,083 Descending Chicago Center
Fri 11:31:45 PM 41.0725 -89.2300 41° Northeast 416 479 22,000 -1,884 Descending Chicago Center
Fri 11:32:46 PM 41.1442 -89.1450 42° Northeast 399 459 20,300 -1,770 Descending Chicago Center
Fri 11:33:47 PM 41.2222 -89.0539 41° Northeast 378 435 18,400 -1,918 Descending Chicago Center
Fri 11:34:48 PM 41.3086 -88.9497 42° Northeast 352 405 16,400 -1,918 Descending Chicago Center
Fri 11:35:49 PM 41.3808 -88.8642 42° Northeast 347 399 14,500 -1,884 Descending Chicago Center
Fri 11:36:49 PM 41.4522 -88.7789 42° Northeast 346 398 12,600 -1,736 Descending Chicago Center
Fri 11:37:50 PM 41.5203 -88.6875 45° Northeast 349 402 11,000 -787 Descending Chicago Center
Fri 11:38:51 PM 41.5639 -88.5772 62° Northeast 339 390 11,000  Level Chicago Center
Fri 11:39:52 PM 41.6086 -88.4661 62° Northeast 340 391 11,000  Level Chicago Center
Fri 11:40:52 PM 41.6664 -88.3669 52° Northeast 338 389 11,000  Level Chicago Center
Fri 11:41:53 PM 41.7256 -88.2664 52° Northeast 345 397 11,000 -148 Level Chicago Center
Fri 11:42:54 PM 41.7981 -88.1947 36° Northeast 334 384 10,700 -590 Descending Chicago Center
Fri 11:43:55 PM 41.8772 -88.1808 North 290 334 9,800 -1,438 Descending Chicago Center
Fri 11:44:55 PM 41.9511 -88.1739 North 271 312 7,800 -1,636 Descending Chicago Center
Fri 11:45:56 PM 42.0231 -88.1761 359° North 262 302 6,500 -1,525 Descending Chicago Center
Fri 11:46:57 PM 42.0822 -88.1447 21° North 247 284 4,700 -1,328 Descending Chicago Center
Fri 11:47:58 PM 42.1206 -88.0886 47° Northeast 226 260 3,800 -850 Descending Chicago Center
Fri 11:49:04 PM 42.0833 -88.0167 125° Southeast 178 205 2,900 -791 Descending Chicago TRACON
Fri 11:51:00 PM 42.0289 -87.9469 136° Southeast 157 181 1,400 -542 Descending Chicago Center
Fri 11:52:01 PM 42.0019 -87.9131 137° Southeast 154 177 1,300 -98 Descending Chicago Center

Login

Don't have an account? Register now (free) for customized features, flight alerts, and more!